createdAt,value
2023-04-28T00:01:28.244Z,100776.41
2023-04-28T00:03:55.641Z,100772.88
2023-04-28T00:06:22.450Z,100764.13
2023-04-28T00:08:48.982Z,100759.63
2023-04-28T00:11:15.484Z,100759.59
2023-04-28T00:13:42.087Z,100755.16
2023-04-28T00:16:08.614Z,100750.69
2023-04-28T00:18:35.285Z,100746.25
2023-04-28T00:21:01.976Z,100742.69
2023-04-28T00:23:28.585Z,100740.88
2023-04-28T00:25:57.495Z,100737.34
2023-04-28T00:30:53.523Z,100738.28
2023-04-28T00:33:20.145Z,100736.59
2023-04-28T00:35:46.669Z,100734.91
2023-04-28T00:38:13.210Z,100728.78
2023-04-28T00:40:39.873Z,100727.09
2023-04-28T00:43:06.980Z,100719.22
2023-04-28T00:45:33.577Z,100731.59
2023-04-28T00:48:00.783Z,100721.13
2023-04-28T00:50:28.336Z,100710.69
2023-04-28T00:52:54.937Z,100713.41
2023-04-28T00:55:22.177Z,100714.34
2023-04-28T00:57:48.798Z,100712.63
2023-04-28T01:00:16.348Z,100711.81
2023-04-28T01:02:43.100Z,100703.09
2023-04-28T01:05:10.328Z,100710.16
2023-04-28T01:07:37.700Z,100703.19
2023-04-28T01:10:06.889Z,100700.63
2023-04-28T01:12:34.317Z,100698.03
2023-04-28T01:15:01.542Z,100699.88
2023-04-28T01:17:29.856Z,100692.03
2023-04-28T01:19:56.506Z,100692.94
2023-04-28T01:22:23.001Z,100691.25
2023-04-28T01:24:49.532Z,100691.25
2023-04-28T01:27:16.605Z,100690.38
2023-04-28T01:29:43.994Z,100683.34
2023-04-28T01:32:10.506Z,100680.69
2023-04-28T01:34:37.102Z,100673.56
2023-04-28T01:37:05.964Z,100677.06
2023-04-28T01:39:32.756Z,100679.69
2023-04-28T01:41:59.212Z,100669.06
2023-04-28T01:44:26.166Z,100667.28
2023-04-28T01:46:52.667Z,100661.94
2023-04-28T01:49:21.488Z,100658.41
2023-04-28T01:51:48.165Z,100659.25
2023-04-28T01:54:14.777Z,100664.47
2023-04-28T01:56:42.116Z,100656.56
2023-04-28T01:59:09.394Z,100656.56
2023-04-28T02:01:36.511Z,100653.94
2023-04-28T02:04:03.199Z,100653.09
2023-04-28T02:06:33.046Z,100654.88
2023-04-28T02:08:59.653Z,100644.34
2023-04-28T02:11:26.139Z,100639.97
2023-04-28T02:13:56.055Z,100642.66
2023-04-28T02:16:22.591Z,100626.88
2023-04-28T02:18:50.240Z,100635.69
2023-04-28T02:21:16.828Z,100625.22
2023-04-28T02:23:44.936Z,100626.16
2023-04-28T02:26:11.562Z,100620.03
2023-04-28T02:28:38.111Z,100625.38
2023-04-28T02:31:10.279Z,100619.25
2023-04-28T02:33:37.695Z,100619.28
2023-04-28T02:36:05.547Z,100613.16
2023-04-28T02:38:32.229Z,100621.09
2023-04-28T02:41:04.807Z,100609.75
2023-04-28T02:43:32.202Z,100609.75
2023-04-28T02:45:58.778Z,100603.53
2023-04-28T02:48:25.906Z,100597.34
2023-04-28T02:50:53.331Z,100591.16
2023-04-28T02:53:20.906Z,100591.09
2023-04-28T02:55:48.259Z,100590.19
2023-04-28T02:58:15.104Z,100583.09
2023-04-28T03:00:41.671Z,100579.56
2023-04-28T03:03:08.305Z,100584.78
2023-04-28T03:05:35.041Z,100583.91
2023-04-28T03:08:01.685Z,100572.47
2023-04-28T03:10:28.446Z,100573.25
2023-04-28T03:12:55.082Z,100566.22
2023-04-28T03:15:21.714Z,100565.31
2023-04-28T03:17:48.365Z,100549.41
2023-04-28T03:20:15.512Z,100552.88
2023-04-28T03:22:42.282Z,100546.69
2023-04-28T03:25:09.136Z,100553.66
2023-04-28T03:27:44.569Z,100552.72
2023-04-28T03:30:11.706Z,100546.56
2023-04-28T03:32:38.256Z,100549.19
2023-04-28T03:35:05.128Z,100546.63
2023-04-28T03:37:31.637Z,100534.41
2023-04-28T03:39:58.835Z,100531.78
2023-04-28T03:42:25.547Z,100515.13
2023-04-28T03:45:09.215Z,100523.97
2023-04-28T03:47:36.239Z,100514.31
2023-04-28T03:50:05.548Z,100514.34
2023-04-28T03:52:32.428Z,100516.13
2023-04-28T03:54:59.150Z,100517.03
2023-04-28T03:57:25.837Z,100511.72
2023-04-28T03:59:52.417Z,100502.91
2023-04-28T04:02:19.067Z,100511.59
2023-04-28T04:04:45.693Z,100505.34
2023-04-28T04:07:13.125Z,100509.72
2023-04-28T04:09:40.261Z,100505.31
2023-04-28T04:12:07.722Z,100506.25
2023-04-28T04:14:34.383Z,100508.94
2023-04-28T04:17:01.298Z,100507.22
2023-04-28T04:19:28.089Z,100505.47
2023-04-28T04:21:55.440Z,100501.03
2023-04-28T04:24:22.498Z,100504.56
2023-04-28T04:26:49.328Z,100500.22
2023-04-28T04:29:28.819Z,100494.06
2023-04-28T04:31:55.764Z,100493.28
2023-04-28T04:34:22.272Z,100492.38
2023-04-28T04:36:49.159Z,100490.63
2023-04-28T04:39:15.827Z,100484.44
2023-04-28T04:41:42.405Z,100485.34
2023-04-28T04:44:32.067Z,100487.88
2023-04-28T04:46:59.814Z,100485.22
2023-04-28T04:49:26.718Z,100484.31
2023-04-28T04:51:53.342Z,100487.84
2023-04-28T04:54:19.867Z,100484.38
2023-04-28T04:56:47.038Z,100478.28
2023-04-28T04:59:18.523Z,100479.25
2023-04-28T05:01:52.617Z,100478.50
2023-04-28T05:04:19.512Z,100478.63
2023-04-28T05:06:47.474Z,100476.25
2023-04-28T05:09:13.954Z,100465.09
2023-04-28T05:11:40.984Z,100467.97
2023-04-28T05:14:07.451Z,100464.66
2023-04-28T05:16:34.176Z,100465.81
2023-04-28T05:19:21.461Z,100470.47
2023-04-28T05:21:48.332Z,100465.41
2023-04-28T05:24:15.308Z,100464.81
2023-04-28T05:26:42.026Z,100457.97
2023-04-28T05:29:10.028Z,100459.09
2023-04-28T05:31:36.838Z,100466.38
2023-04-28T05:34:03.461Z,100467.50
2023-04-28T05:36:30.217Z,100462.47
2023-04-28T05:38:56.848Z,100453.00
2023-04-28T05:41:23.650Z,100454.09
2023-04-28T05:43:51.378Z,100447.22
2023-04-28T05:46:30.087Z,100447.44
2023-04-28T05:48:59.054Z,100440.56
2023-04-28T05:51:27.286Z,100439.91
2023-04-28T05:53:53.892Z,100451.50
2023-04-28T05:56:21.000Z,100440.97
2023-04-28T05:58:49.860Z,100436.69
2023-04-28T06:01:16.907Z,100436.78
2023-04-28T06:03:43.845Z,100442.16
2023-04-28T06:06:11.211Z,100431.69
2023-04-28T06:08:41.245Z,100429.97
2023-04-28T06:11:07.789Z,100427.41
2023-04-28T06:13:34.617Z,100430.13
2023-04-28T06:16:03.150Z,100431.09
2023-04-28T06:18:32.488Z,100432.94
2023-04-28T06:21:00.989Z,100428.56
2023-04-28T06:23:27.536Z,100422.47
2023-04-28T06:25:54.408Z,100432.22
2023-04-28T06:28:21.007Z,100419.84
2023-04-28T06:30:47.578Z,100419.91
2023-04-28T06:33:14.049Z,100407.69
2023-04-28T06:35:40.800Z,100415.06
2023-04-28T06:38:07.412Z,100421.41
2023-04-28T06:40:33.947Z,100416.19
2023-04-28T06:43:02.652Z,100409.94
2023-04-28T06:45:37.595Z,100405.41
2023-04-28T06:48:05.027Z,100406.19
2023-04-28T06:50:31.518Z,100397.31
2023-04-28T06:52:58.901Z,100397.25
2023-04-28T06:55:26.789Z,100395.53
2023-04-28T06:57:53.449Z,100393.84
2023-04-28T07:00:20.077Z,100393.03
2023-04-28T07:02:46.798Z,100391.31
2023-04-28T07:05:16.134Z,100391.34
2023-04-28T07:07:43.199Z,100388.69
2023-04-28T07:10:11.277Z,100396.69
2023-04-28T07:12:37.799Z,100396.69
2023-04-28T07:15:04.637Z,100394.91
2023-04-28T07:17:31.284Z,100382.53
2023-04-28T07:19:57.848Z,100386.94
2023-04-28T07:22:24.473Z,100376.31
2023-04-28T07:24:51.377Z,100376.28
2023-04-28T07:27:17.907Z,100375.41
2023-04-28T07:29:44.408Z,100375.41
2023-04-28T07:32:11.190Z,100386.03
2023-04-28T07:34:37.897Z,100379.81
2023-04-28T07:37:04.789Z,100375.38
2023-04-28T07:39:33.840Z,100373.56
2023-04-28T07:42:03.639Z,100372.63
2023-04-28T07:44:31.220Z,100374.38
2023-04-28T07:46:59.372Z,100375.22
2023-04-28T07:49:27.262Z,100375.22
2023-04-28T07:51:55.369Z,100372.53
2023-04-28T07:54:22.177Z,100373.38
2023-04-28T07:56:48.887Z,100369.78
2023-04-28T07:59:15.464Z,100369.75
2023-04-28T08:01:43.022Z,100362.59
2023-04-28T08:04:10.141Z,100359.88
2023-04-28T08:06:36.850Z,100362.50
2023-04-28T08:09:05.908Z,100358.84
2023-04-28T08:11:33.447Z,100361.44
2023-04-28T08:14:02.995Z,100357.81
2023-04-28T08:16:31.042Z,100363.06
2023-04-28T08:18:59.051Z,100363.00
2023-04-28T08:21:26.027Z,100359.34
2023-04-28T08:23:52.581Z,100364.59
2023-04-28T08:26:19.149Z,100362.75
2023-04-28T08:28:45.702Z,100360.09
2023-04-28T08:31:12.279Z,100368.94
2023-04-28T08:33:39.085Z,100362.75
2023-04-28T08:36:06.350Z,100358.34
2023-04-28T08:38:34.995Z,100358.34
2023-04-28T08:41:04.638Z,100361.06
2023-04-28T08:43:36.474Z,100362.81
2023-04-28T08:46:08.091Z,100367.28
2023-04-28T08:48:42.834Z,100368.97
2023-04-28T08:51:11.494Z,100364.50
2023-04-28T08:54:11.262Z,100363.59
2023-04-28T08:56:27.844Z,100357.38
2023-04-28T08:58:54.969Z,100354.69
2023-04-28T09:01:21.478Z,100349.31
2023-04-28T09:03:49.430Z,100349.25
2023-04-28T09:06:16.076Z,100342.94
2023-04-28T09:08:42.957Z,100335.66
2023-04-28T09:11:11.139Z,100340.69
2023-04-28T09:13:37.696Z,100334.22
2023-04-28T09:16:04.619Z,100337.50
2023-04-28T09:18:34.529Z,100330.16
2023-04-28T09:21:10.318Z,100332.56
2023-04-28T09:23:49.144Z,100326.13
2023-04-28T09:26:16.126Z,100317.91
2023-04-28T09:28:42.699Z,100315.88
2023-04-28T09:31:23.766Z,100321.78
2023-04-28T09:33:57.270Z,100310.81
2023-04-28T09:36:30.855Z,100306.09
2023-04-28T09:38:59.261Z,100308.59
2023-04-28T09:41:45.465Z,100306.59
2023-04-28T09:44:17.130Z,100302.94
2023-04-28T09:46:48.193Z,100304.53
2023-04-28T09:49:15.670Z,100295.53
2023-04-28T09:51:42.243Z,100301.69
2023-04-28T09:54:08.837Z,100299.81
2023-04-28T09:56:41.023Z,100292.66
2023-04-28T09:59:08.211Z,100290.91
2023-04-28T10:01:40.680Z,100286.63
2023-04-28T10:04:09.001Z,100278.75
2023-04-28T10:06:38.768Z,100276.97
2023-04-28T10:09:06.073Z,100273.44
2023-04-28T10:11:33.972Z,100285.00
2023-04-28T10:14:00.672Z,100280.59
2023-04-28T10:16:32.122Z,100278.94
2023-04-28T10:18:59.088Z,100277.22
2023-04-28T10:21:28.441Z,100279.88
2023-04-28T10:24:33.472Z,100281.84
2023-04-28T10:27:05.730Z,100267.75
2023-04-28T10:29:33.841Z,100269.81
2023-04-28T10:32:19.989Z,100260.94
2023-04-28T10:34:47.277Z,100263.59
2023-04-28T10:37:15.202Z,100260.00
2023-04-28T10:40:20.077Z,100260.94
2023-04-28T10:42:54.481Z,100259.94
2023-04-28T10:45:56.145Z,100254.41
2023-04-28T10:48:46.462Z,100258.69
2023-04-28T10:51:15.774Z,100259.59
2023-04-28T10:53:45.584Z,100256.91
2023-04-28T10:56:22.008Z,100251.59
2023-04-28T10:58:50.723Z,100245.31
2023-04-28T11:01:20.069Z,100247.16
2023-04-28T11:03:48.812Z,100240.94
2023-04-28T11:06:31.916Z,100232.81
2023-04-28T11:09:00.419Z,100234.44
2023-04-28T11:11:30.558Z,100231.66
2023-04-28T11:14:19.080Z,100243.34
2023-04-28T11:16:59.875Z,100240.81
2023-04-28T11:19:33.211Z,100241.88
2023-04-28T11:22:01.959Z,100250.03
2023-04-28T11:24:29.668Z,100242.91
2023-04-28T11:26:57.644Z,100245.63
2023-04-28T11:29:33.583Z,100238.56
2023-04-28T11:32:00.768Z,100236.88
2023-04-28T11:34:27.748Z,100232.44
2023-04-28T11:36:55.026Z,100232.47
2023-04-28T11:39:29.877Z,100242.31
2023-04-28T11:41:58.177Z,100234.22
2023-04-28T11:44:29.757Z,100234.28
2023-04-28T11:47:01.904Z,100235.91
2023-04-28T11:49:31.011Z,100224.13
2023-04-28T11:52:04.026Z,100230.25
2023-04-28T11:54:30.555Z,100229.34
2023-04-28T11:57:01.197Z,100233.69
2023-04-28T11:59:29.404Z,100223.75
2023-04-28T12:02:02.744Z,100226.97
2023-04-28T12:04:39.325Z,100205.28
2023-04-28T12:07:07.175Z,100213.31
2023-04-28T12:09:35.504Z,100205.34
2023-04-28T12:12:06.561Z,100206.25
2023-04-28T12:15:06.211Z,100207.19
2023-04-28T12:17:37.834Z,100204.75
2023-04-28T12:20:12.742Z,100201.56
2023-04-28T12:22:47.501Z,100199.06
2023-04-28T12:25:17.231Z,100191.09
2023-04-28T12:28:04.100Z,100199.06
2023-04-28T12:30:33.442Z,100196.63
2023-04-28T12:33:00.308Z,100193.22
2023-04-28T12:35:30.431Z,100193.34
2023-04-28T12:37:58.985Z,100187.22
2023-04-28T12:40:26.120Z,100194.50
2023-04-28T12:42:53.312Z,100192.09
2023-04-28T12:45:19.810Z,100195.75
2023-04-28T12:47:47.233Z,100194.00
2023-04-28T12:50:13.868Z,100184.25
2023-04-28T12:52:40.501Z,100185.22
2023-04-28T12:55:08.179Z,100184.44
2023-04-28T12:57:39.044Z,100189.13
2023-04-28T13:00:07.492Z,100184.78
2023-04-28T13:02:34.549Z,100184.00
2023-04-28T13:05:01.969Z,100171.72
2023-04-28T13:07:28.753Z,100170.00
2023-04-28T13:09:55.911Z,100168.22
2023-04-28T13:12:23.529Z,100172.66
2023-04-28T13:14:50.082Z,100172.69
2023-04-28T13:17:16.639Z,100172.66
2023-04-28T13:19:43.823Z,100172.66
2023-04-28T13:22:10.644Z,100169.06
2023-04-28T13:24:37.597Z,100163.63
2023-04-28T13:27:04.348Z,100156.31
2023-04-28T13:29:31.008Z,100151.53
2023-04-28T13:31:57.720Z,100144.22
2023-04-28T13:34:24.257Z,100152.25
2023-04-28T13:36:54.029Z,100149.53
2023-04-28T13:39:22.013Z,100153.91
2023-04-28T13:41:49.445Z,100146.72
2023-04-28T13:44:16.839Z,100143.06
2023-04-28T13:46:43.571Z,100150.06
2023-04-28T13:49:10.668Z,100144.53
2023-04-28T13:51:37.225Z,100141.66
2023-04-28T13:54:04.710Z,100144.84
2023-04-28T13:56:32.008Z,100142.06
2023-04-28T13:58:58.888Z,100142.19
2023-04-28T14:01:25.664Z,100137.94
2023-04-28T14:03:52.520Z,100131.97
2023-04-28T14:06:19.261Z,100130.50
2023-04-28T14:08:45.744Z,100126.19
2023-04-28T14:11:12.311Z,100129.91
2023-04-28T14:13:39.007Z,100136.28
2023-04-28T14:16:05.792Z,100126.69
2023-04-28T14:18:33.855Z,100131.97
2023-04-28T14:21:02.085Z,100128.34
2023-04-28T14:23:28.765Z,100120.97
2023-04-28T14:25:56.913Z,100115.34
2023-04-28T14:28:23.937Z,100111.44
2023-04-28T14:30:50.635Z,100121.94
2023-04-28T14:33:17.367Z,100115.81
2023-04-28T14:35:43.999Z,100114.88
2023-04-28T14:38:10.855Z,100102.47
2023-04-28T14:40:37.364Z,100093.53
2023-04-28T14:43:03.804Z,100099.13
2023-04-28T14:45:31.457Z,100103.03
2023-04-28T14:47:58.065Z,100099.84
2023-04-28T14:50:24.963Z,100099.19
2023-04-28T14:52:51.784Z,100101.84
2023-04-28T14:55:18.426Z,100092.06
2023-04-28T14:57:44.877Z,100093.84
2023-04-28T15:00:12.232Z,100089.38
2023-04-28T15:02:39.099Z,100085.84
2023-04-28T15:05:06.298Z,100081.38
2023-04-28T15:07:33.242Z,100080.47
2023-04-28T15:10:00.650Z,100071.50
2023-04-28T15:12:30.089Z,100075.03
2023-04-28T15:14:56.749Z,100069.66
2023-04-28T15:17:23.397Z,100072.31
2023-04-28T15:19:50.088Z,100073.31
2023-04-28T15:22:16.930Z,100080.47
2023-04-28T15:24:43.448Z,100070.66
2023-04-28T15:27:10.022Z,100066.97
2023-04-28T15:29:36.544Z,100070.47
2023-04-28T15:32:03.183Z,100066.97
2023-04-28T15:34:29.749Z,100065.28
2023-04-28T15:36:56.695Z,100068.94
2023-04-28T15:39:25.075Z,100064.53
2023-04-28T15:41:55.058Z,100060.00
2023-04-28T15:44:21.515Z,100057.34
2023-04-28T15:46:47.996Z,100059.13
2023-04-28T15:49:14.980Z,100066.31
2023-04-28T15:51:42.226Z,100060.22
2023-04-28T15:54:09.872Z,100060.44
2023-04-28T15:56:36.410Z,100060.66
2023-04-28T15:59:04.319Z,100060.84
2023-04-28T16:01:30.933Z,100061.94
2023-04-28T16:03:57.574Z,100065.69
2023-04-28T16:06:25.450Z,100061.34
2023-04-28T16:08:51.969Z,100052.63
2023-04-28T16:11:20.288Z,100045.66
2023-04-28T16:13:46.796Z,100048.41
2023-04-28T16:16:13.464Z,100045.81
2023-04-28T16:18:40.092Z,100041.53
2023-04-28T16:21:07.946Z,100051.41
2023-04-28T16:23:34.948Z,100045.31
2023-04-28T16:26:01.561Z,100046.28
2023-04-28T16:28:28.589Z,100034.78
2023-04-28T16:30:55.276Z,100044.59
2023-04-28T16:33:21.751Z,100039.28
2023-04-28T16:35:55.873Z,100041.00
2023-04-28T16:38:22.418Z,100033.84
2023-04-28T16:40:49.524Z,100039.13
2023-04-28T16:43:15.995Z,100046.34
2023-04-28T16:45:42.984Z,100047.22
2023-04-28T16:48:10.818Z,100028.47
2023-04-28T16:50:39.123Z,100039.09
2023-04-28T16:53:08.685Z,100039.97
2023-04-28T16:55:38.161Z,100041.78
2023-04-28T16:58:04.745Z,100035.59
2023-04-28T17:00:32.056Z,100043.69
2023-04-28T17:02:58.649Z,100039.34
2023-04-28T17:05:25.514Z,100036.69
2023-04-28T17:07:52.108Z,100022.44
2023-04-28T17:10:18.687Z,100025.84
2023-04-28T17:12:45.566Z,100017.66
2023-04-28T17:15:17.272Z,100017.56
2023-04-28T17:17:49.012Z,100007.00
2023-04-28T17:20:18.395Z,100014.22
2023-04-28T17:22:44.876Z,100001.03
2023-04-28T17:25:12.123Z,100001.22
2023-04-28T17:27:38.841Z,100004.00
2023-04-28T17:30:09.270Z,100010.34
2023-04-28T17:32:37.287Z,100004.22
2023-04-28T17:35:05.013Z,99993.63
2023-04-28T17:37:33.115Z,100004.34
2023-04-28T17:40:00.664Z,100015.06
2023-04-28T17:42:33.599Z,100020.44
2023-04-28T17:45:00.200Z,100028.53
2023-04-28T17:47:26.754Z,100036.56
2023-04-28T17:49:54.224Z,100033.06
2023-04-28T17:52:20.807Z,100041.13
2023-04-28T17:54:47.623Z,100030.47
2023-04-28T17:57:14.539Z,100031.44
2023-04-28T17:59:42.616Z,100026.22
2023-04-28T18:02:10.463Z,100036.91
2023-04-28T18:04:37.734Z,100033.41
2023-04-28T18:07:04.258Z,100025.47
2023-04-28T18:09:31.756Z,100020.19
2023-04-28T18:11:58.389Z,100014.94
2023-04-28T18:14:24.976Z,99995.50
2023-04-28T18:16:51.480Z,99982.31
2023-04-28T18:19:17.998Z,99982.34
2023-04-28T18:21:44.451Z,99987.75
2023-04-28T18:24:10.985Z,99990.44
2023-04-28T18:26:37.502Z,99994.91
2023-04-28T18:29:04.139Z,99982.53
2023-04-28T18:31:31.201Z,99982.53
2023-04-28T18:33:57.727Z,99973.72
2023-04-28T18:36:24.215Z,99971.94
2023-04-28T18:38:50.729Z,99969.31
2023-04-28T18:41:18.360Z,99963.13
2023-04-28T18:43:44.960Z,99956.06
2023-04-28T18:46:11.603Z,99956.06
2023-04-28T18:48:38.431Z,99949.03
2023-04-28T18:51:05.505Z,99957.03
2023-04-28T18:53:32.664Z,99959.75
2023-04-28T18:55:59.472Z,99964.22
2023-04-28T18:58:26.008Z,99961.63
2023-04-28T19:00:52.975Z,99957.22
2023-04-28T19:03:20.506Z,99961.69
2023-04-28T19:05:48.235Z,99967.03
2023-04-28T19:08:14.838Z,99969.75
2023-04-28T19:10:41.447Z,99970.63
2023-04-28T19:13:08.113Z,99975.97
2023-04-28T19:15:35.025Z,99971.56
2023-04-28T19:18:05.195Z,99973.34
2023-04-28T19:20:31.775Z,99970.72
2023-04-28T19:23:01.572Z,99977.81
2023-04-28T19:25:30.544Z,99969.91
2023-04-28T19:27:57.027Z,99963.75
2023-04-28T19:30:23.529Z,99974.41
2023-04-28T19:32:50.047Z,99963.81
2023-04-28T19:35:16.615Z,99970.03
2023-04-28T19:37:43.240Z,99971.78
2023-04-28T19:40:10.460Z,99971.78
2023-04-28T19:42:36.910Z,99971.78
2023-04-28T19:45:04.010Z,99964.66
2023-04-28T19:47:35.967Z,99965.53
2023-04-28T19:50:02.574Z,99966.41
2023-04-28T19:52:29.208Z,99957.59
2023-04-28T19:54:55.859Z,99958.47
2023-04-28T19:57:22.425Z,99962.03
2023-04-28T19:59:49.759Z,99960.22
2023-04-28T20:02:17.185Z,99960.22
2023-04-28T20:04:44.019Z,99958.44
2023-04-28T20:07:11.402Z,99959.34
2023-04-28T20:09:38.637Z,99962.88
2023-04-28T20:12:06.810Z,99953.13
2023-04-28T20:14:33.692Z,99951.34
2023-04-28T20:17:02.247Z,99944.25
2023-04-28T20:19:28.747Z,99950.47
2023-04-28T20:21:55.998Z,99938.09
2023-04-28T20:24:22.667Z,99943.44
2023-04-28T20:26:50.132Z,99941.66
2023-04-28T20:29:16.780Z,99940.81
2023-04-28T20:31:43.514Z,99937.22
2023-04-28T20:34:10.152Z,99939.00
2023-04-28T20:36:39.012Z,99938.06
2023-04-28T20:39:11.049Z,99938.94
2023-04-28T20:41:38.381Z,99941.59
2023-04-28T20:44:05.533Z,99938.06
2023-04-28T20:46:33.124Z,99944.25
2023-04-28T20:49:00.193Z,99938.97
2023-04-28T20:51:28.901Z,99938.09
2023-04-28T20:53:56.686Z,99933.66
2023-04-28T20:56:23.371Z,99946.09
2023-04-28T20:58:49.944Z,99946.97
2023-04-28T21:01:16.535Z,99945.22
2023-04-28T21:03:43.504Z,99944.38
2023-04-28T21:06:10.187Z,99935.50
2023-04-28T21:08:36.944Z,99941.66
2023-04-28T21:11:03.623Z,99944.28
2023-04-28T21:13:30.072Z,99943.41
2023-04-28T21:15:56.788Z,99937.19
2023-04-28T21:18:23.432Z,99939.88
2023-04-28T21:20:51.054Z,99941.66
2023-04-28T21:23:17.629Z,99930.19
2023-04-28T21:25:44.259Z,99942.53
2023-04-28T21:28:10.928Z,99936.34
2023-04-28T21:30:37.517Z,99943.44
2023-04-28T21:33:04.212Z,99940.81
2023-04-28T21:35:30.779Z,99946.09
2023-04-28T21:37:57.270Z,99940.81
2023-04-28T21:40:23.837Z,99947.84
2023-04-28T21:42:50.979Z,99939.00
2023-04-28T21:45:17.574Z,99931.03
2023-04-28T21:47:44.404Z,99940.81
2023-04-28T21:50:11.468Z,99936.31
2023-04-28T21:52:39.378Z,99931.91
2023-04-28T21:55:06.480Z,99932.81
2023-04-28T21:57:33.120Z,99937.22
2023-04-28T21:59:59.642Z,99931.97
2023-04-28T22:02:26.313Z,99930.19
2023-04-28T22:04:53.782Z,99923.97
2023-04-28T22:07:20.572Z,99930.19
2023-04-28T22:09:47.337Z,99928.41
2023-04-28T22:12:14.488Z,99931.91
2023-04-28T22:14:41.736Z,99933.66
2023-04-28T22:17:08.536Z,99941.66
2023-04-28T22:19:35.417Z,99939.00
2023-04-28T22:22:02.271Z,99938.09
2023-04-28T22:24:28.801Z,99946.03
2023-04-28T22:26:55.225Z,99941.63
2023-04-28T22:29:22.056Z,99943.41
2023-04-28T22:31:48.776Z,99936.34
2023-04-28T22:34:16.768Z,99938.16
2023-04-28T22:36:45.006Z,99944.31
2023-04-28T22:39:11.908Z,99934.56
2023-04-28T22:41:38.469Z,99935.44
2023-04-28T22:44:05.173Z,99933.69
2023-04-28T22:46:31.819Z,99937.28
2023-04-28T22:48:58.897Z,99943.47
2023-04-28T22:51:26.993Z,99943.50
2023-04-28T22:53:54.293Z,99939.06
2023-04-28T22:56:21.904Z,99948.78
2023-04-28T22:58:48.529Z,99939.94
2023-04-28T23:01:15.129Z,99942.63
2023-04-28T23:03:41.962Z,99947.94
2023-04-28T23:06:08.594Z,99936.44
2023-04-28T23:08:35.537Z,99944.41
2023-04-28T23:11:06.559Z,99942.63
2023-04-28T23:13:33.286Z,99944.41
2023-04-28T23:16:00.449Z,99939.09
2023-04-28T23:18:31.599Z,99942.63
2023-04-28T23:20:58.332Z,99945.28
2023-04-28T23:23:24.879Z,99940.88
2023-04-28T23:25:52.023Z,99946.16
2023-04-28T23:28:18.816Z,99945.28
2023-04-28T23:30:45.319Z,99940.88
2023-04-28T23:33:11.955Z,99938.22
2023-04-28T23:35:38.560Z,99939.97
2023-04-28T23:38:05.025Z,99937.34
2023-04-28T23:40:31.544Z,99934.69
2023-04-28T23:42:58.139Z,99932.88
2023-04-28T23:45:24.702Z,99926.69
2023-04-28T23:47:51.368Z,99939.09
2023-04-28T23:50:18.140Z,99931.13
2023-04-28T23:52:44.690Z,99932.03
2023-04-28T23:55:12.876Z,99930.25
2023-04-28T23:57:39.909Z,99930.25
